sensor_id;sensor_type;location;lat;lon;timestamp;temperature;humidity
10057;DHT22;5068;51.286;7.518;2022-10-12T00:01:30;2.80;58.00
10057;DHT22;5068;51.286;7.518;2022-10-12T00:03:03;2.70;57.90
10057;DHT22;5068;51.286;7.518;2022-10-12T00:04:36;2.70;58.00
10057;DHT22;5068;51.286;7.518;2022-10-12T00:06:11;2.70;58.00
10057;DHT22;5068;51.286;7.518;2022-10-12T00:07:46;2.70;58.10
10057;DHT22;5068;51.286;7.518;2022-10-12T00:09:19;2.70;58.10
10057;DHT22;5068;51.286;7.518;2022-10-12T00:10:52;2.70;58.10
10057;DHT22;5068;51.286;7.518;2022-10-12T00:12:27;2.60;58.10
10057;DHT22;5068;51.286;7.518;2022-10-12T00:14:00;2.60;58.10
10057;DHT22;5068;51.286;7.518;2022-10-12T00:15:36;2.60;58.10
10057;DHT22;5068;51.286;7.518;2022-10-12T00:17:10;2.60;58.20
10057;DHT22;5068;51.286;7.518;2022-10-12T00:18:44;2.60;58.20
10057;DHT22;5068;51.286;7.518;2022-10-12T00:20:21;2.60;58.30
10057;DHT22;5068;51.286;7.518;2022-10-12T00:21:54;2.60;58.30
10057;DHT22;5068;51.286;7.518;2022-10-12T00:23:28;2.50;58.30
10057;DHT22;5068;51.286;7.518;2022-10-12T00:25:01;2.50;58.40
10057;DHT22;5068;51.286;7.518;2022-10-12T00:26:35;2.50;58.30
10057;DHT22;5068;51.286;7.518;2022-10-12T00:28:10;2.50;58.30
10057;DHT22;5068;51.286;7.518;2022-10-12T00:29:43;2.50;58.40
10057;DHT22;5068;51.286;7.518;2022-10-12T00:31:18;2.50;58.40
10057;DHT22;5068;51.286;7.518;2022-10-12T00:32:52;2.50;58.50
10057;DHT22;5068;51.286;7.518;2022-10-12T00:34:26;2.50;58.50
10057;DHT22;5068;51.286;7.518;2022-10-12T00:35:58;2.50;58.50
10057;DHT22;5068;51.286;7.518;2022-10-12T00:37:32;2.50;58.60
10057;DHT22;5068;51.286;7.518;2022-10-12T00:39:07;2.50;58.60
10057;DHT22;5068;51.286;7.518;2022-10-12T00:40:41;2.50;58.60
10057;DHT22;5068;51.286;7.518;2022-10-12T00:42:14;2.50;58.60
10057;DHT22;5068;51.286;7.518;2022-10-12T00:43:53;2.50;58.60
10057;DHT22;5068;51.286;7.518;2022-10-12T00:45:30;2.50;58.50
10057;DHT22;5068;51.286;7.518;2022-10-12T00:47:08;2.40;58.40
10057;DHT22;5068;51.286;7.518;2022-10-12T00:48:51;2.40;58.50
10057;DHT22;5068;51.286;7.518;2022-10-12T00:50:30;2.50;58.50
10057;DHT22;5068;51.286;7.518;2022-10-12T00:52:09;2.40;58.40
10057;DHT22;5068;51.286;7.518;2022-10-12T00:53:47;2.40;58.40
10057;DHT22;5068;51.286;7.518;2022-10-12T00:55:26;2.40;58.50
10057;DHT22;5068;51.286;7.518;2022-10-12T00:57:04;2.40;58.50
10057;DHT22;5068;51.286;7.518;2022-10-12T00:58:37;2.40;58.60
10057;DHT22;5068;51.286;7.518;2022-10-12T01:00:16;2.40;58.70
10057;DHT22;5068;51.286;7.518;2022-10-12T01:01:52;2.40;58.80
10057;DHT22;5068;51.286;7.518;2022-10-12T01:03:31;2.40;58.70
10057;DHT22;5068;51.286;7.518;2022-10-12T01:05:11;2.30;58.60
10057;DHT22;5068;51.286;7.518;2022-10-12T01:06:50;2.30;58.60
10057;DHT22;5068;51.286;7.518;2022-10-12T01:08:29;2.30;58.70
10057;DHT22;5068;51.286;7.518;2022-10-12T01:10:09;2.30;58.80
10057;DHT22;5068;51.286;7.518;2022-10-12T01:11:51;2.30;58.60
10057;DHT22;5068;51.286;7.518;2022-10-12T01:13:30;2.30;58.60
10057;DHT22;5068;51.286;7.518;2022-10-12T01:15:10;2.30;58.50
10057;DHT22;5068;51.286;7.518;2022-10-12T01:16:54;2.30;58.50
10057;DHT22;5068;51.286;7.518;2022-10-12T01:18:43;2.30;58.50
10057;DHT22;5068;51.286;7.518;2022-10-12T01:20:52;2.30;58.50
10057;DHT22;5068;51.286;7.518;2022-10-12T01:22:40;2.20;58.60
10057;DHT22;5068;51.286;7.518;2022-10-12T01:24:40;2.20;58.50
10057;DHT22;5068;51.286;7.518;2022-10-12T01:28:40;2.20;58.70
10057;DHT22;5068;51.286;7.518;2022-10-12T01:30:26;2.20;58.60
10057;DHT22;5068;51.286;7.518;2022-10-12T01:32:07;2.10;58.50
10057;DHT22;5068;51.286;7.518;2022-10-12T01:33:50;2.10;58.50
10057;DHT22;5068;51.286;7.518;2022-10-12T01:35:34;2.10;58.40
10057;DHT22;5068;51.286;7.518;2022-10-12T01:37:19;2.10;58.40
10057;DHT22;5068;51.286;7.518;2022-10-12T01:39:02;2.10;58.60
10057;DHT22;5068;51.286;7.518;2022-10-12T01:40:43;2.00;58.50
10057;DHT22;5068;51.286;7.518;2022-10-12T01:42:23;2.00;58.60
10057;DHT22;5068;51.286;7.518;2022-10-12T01:44:00;2.00;58.60
10057;DHT22;5068;51.286;7.518;2022-10-12T01:45:34;2.00;58.60
10057;DHT22;5068;51.286;7.518;2022-10-12T01:47:08;2.00;58.80
10057;DHT22;5068;51.286;7.518;2022-10-12T01:48:43;2.00;58.90
10057;DHT22;5068;51.286;7.518;2022-10-12T01:50:18;1.90;58.90
10057;DHT22;5068;51.286;7.518;2022-10-12T01:52:21;1.90;58.90
10057;DHT22;5068;51.286;7.518;2022-10-12T01:54:06;1.90;59.10
10057;DHT22;5068;51.286;7.518;2022-10-12T01:55:49;1.90;58.90
10057;DHT22;5068;51.286;7.518;2022-10-12T01:57:32;1.90;58.90
10057;DHT22;5068;51.286;7.518;2022-10-12T01:59:21;1.90;58.90
10057;DHT22;5068;51.286;7.518;2022-10-12T02:01:14;1.90;59.00
10057;DHT22;5068;51.286;7.518;2022-10-12T02:02:58;1.90;59.00
10057;DHT22;5068;51.286;7.518;2022-10-12T02:04:47;1.90;58.90
10057;DHT22;5068;51.286;7.518;2022-10-12T02:06:31;1.90;58.90
10057;DHT22;5068;51.286;7.518;2022-10-12T02:08:16;1.90;58.90
10057;DHT22;5068;51.286;7.518;2022-10-12T02:09:57;1.90;58.90
10057;DHT22;5068;51.286;7.518;2022-10-12T02:11:36;1.90;58.90
10057;DHT22;5068;51.286;7.518;2022-10-12T02:13:14;1.90;58.90
10057;DHT22;5068;51.286;7.518;2022-10-12T02:14:54;1.80;58.80
10057;DHT22;5068;51.286;7.518;2022-10-12T02:16:35;1.80;58.90
10057;DHT22;5068;51.286;7.518;2022-10-12T02:18:14;1.80;58.90
10057;DHT22;5068;51.286;7.518;2022-10-12T02:19:54;1.80;59.10
10057;DHT22;5068;51.286;7.518;2022-10-12T02:21:30;1.80;59.10
10057;DHT22;5068;51.286;7.518;2022-10-12T02:23:06;1.80;59.10
10057;DHT22;5068;51.286;7.518;2022-10-12T02:24:45;1.80;59.10
10057;DHT22;5068;51.286;7.518;2022-10-12T02:26:21;1.80;59.20
10057;DHT22;5068;51.286;7.518;2022-10-12T02:27:59;1.80;59.20
10057;DHT22;5068;51.286;7.518;2022-10-12T02:29:39;1.80;59.30
10057;DHT22;5068;51.286;7.518;2022-10-12T02:31:19;1.80;59.20
10057;DHT22;5068;51.286;7.518;2022-10-12T02:33:03;1.80;59.20
10057;DHT22;5068;51.286;7.518;2022-10-12T02:34:43;1.80;59.20
10057;DHT22;5068;51.286;7.518;2022-10-12T02:36:24;1.70;59.10
10057;DHT22;5068;51.286;7.518;2022-10-12T02:38:09;1.80;59.10
10057;DHT22;5068;51.286;7.518;2022-10-12T02:39:49;1.80;59.10
10057;DHT22;5068;51.286;7.518;2022-10-12T02:41:28;1.80;59.10
10057;DHT22;5068;51.286;7.518;2022-10-12T02:43:12;1.80;59.10
10057;DHT22;5068;51.286;7.518;2022-10-12T02:44:49;1.70;59.00
10057;DHT22;5068;51.286;7.518;2022-10-12T02:46:26;1.80;59.00
10057;DHT22;5068;51.286;7.518;2022-10-12T02:48:05;1.70;58.90
10057;DHT22;5068;51.286;7.518;2022-10-12T02:49:41;1.70;58.80
10057;DHT22;5068;51.286;7.518;2022-10-12T02:51:17;1.70;58.80
10057;DHT22;5068;51.286;7.518;2022-10-12T02:52:51;1.70;58.80
10057;DHT22;5068;51.286;7.518;2022-10-12T02:54:25;1.70;58.80
10057;DHT22;5068;51.286;7.518;2022-10-12T02:56:00;1.70;58.80
10057;DHT22;5068;51.286;7.518;2022-10-12T02:57:36;1.70;58.80
10057;DHT22;5068;51.286;7.518;2022-10-12T02:59:10;1.70;58.80
10057;DHT22;5068;51.286;7.518;2022-10-12T03:00:44;1.60;58.80
10057;DHT22;5068;51.286;7.518;2022-10-12T03:02:17;1.70;58.90
10057;DHT22;5068;51.286;7.518;2022-10-12T03:03:52;1.70;59.00
10057;DHT22;5068;51.286;7.518;2022-10-12T03:05:25;1.60;59.00
10057;DHT22;5068;51.286;7.518;2022-10-12T03:06:59;1.70;59.10
10057;DHT22;5068;51.286;7.518;2022-10-12T03:08:32;1.60;59.00
10057;DHT22;5068;51.286;7.518;2022-10-12T03:10:06;1.60;59.00
10057;DHT22;5068;51.286;7.518;2022-10-12T03:11:40;1.60;59.00
10057;DHT22;5068;51.286;7.518;2022-10-12T03:13:14;1.70;59.10
10057;DHT22;5068;51.286;7.518;2022-10-12T03:14:48;1.60;59.20
10057;DHT22;5068;51.286;7.518;2022-10-12T03:16:21;1.60;59.20
10057;DHT22;5068;51.286;7.518;2022-10-12T03:17:56;1.60;59.20
10057;DHT22;5068;51.286;7.518;2022-10-12T03:19:31;1.60;59.20
10057;DHT22;5068;51.286;7.518;2022-10-12T03:21:04;1.60;59.20
10057;DHT22;5068;51.286;7.518;2022-10-12T03:22:38;1.60;59.20
10057;DHT22;5068;51.286;7.518;2022-10-12T03:24:12;1.60;59.20
10057;DHT22;5068;51.286;7.518;2022-10-12T03:25:45;1.60;59.30
10057;DHT22;5068;51.286;7.518;2022-10-12T03:27:19;1.60;59.30
10057;DHT22;5068;51.286;7.518;2022-10-12T03:28:52;1.60;59.20
10057;DHT22;5068;51.286;7.518;2022-10-12T03:30:26;1.60;59.30
10057;DHT22;5068;51.286;7.518;2022-10-12T03:31:59;1.60;59.30
10057;DHT22;5068;51.286;7.518;2022-10-12T03:33:33;1.60;59.30
10057;DHT22;5068;51.286;7.518;2022-10-12T03:35:08;1.50;59.20
10057;DHT22;5068;51.286;7.518;2022-10-12T03:36:42;1.50;59.20
10057;DHT22;5068;51.286;7.518;2022-10-12T03:38:19;1.50;59.20
10057;DHT22;5068;51.286;7.518;2022-10-12T03:39:52;1.50;59.20
10057;DHT22;5068;51.286;7.518;2022-10-12T03:41:26;1.50;59.10
10057;DHT22;5068;51.286;7.518;2022-10-12T03:42:59;1.50;59.10
10057;DHT22;5068;51.286;7.518;2022-10-12T03:44:32;1.50;59.20
10057;DHT22;5068;51.286;7.518;2022-10-12T03:46:06;1.50;59.30
10057;DHT22;5068;51.286;7.518;2022-10-12T03:47:39;1.50;59.20
10057;DHT22;5068;51.286;7.518;2022-10-12T03:49:13;1.50;59.20
10057;DHT22;5068;51.286;7.518;2022-10-12T03:50:49;1.50;59.20
10057;DHT22;5068;51.286;7.518;2022-10-12T03:52:23;1.50;59.30
10057;DHT22;5068;51.286;7.518;2022-10-12T03:53:56;1.50;59.20
10057;DHT22;5068;51.286;7.518;2022-10-12T03:55:30;1.50;59.20
10057;DHT22;5068;51.286;7.518;2022-10-12T03:57:03;1.50;59.20
10057;DHT22;5068;51.286;7.518;2022-10-12T03:58:36;1.50;59.30
10057;DHT22;5068;51.286;7.518;2022-10-12T04:00:10;1.50;59.30
10057;DHT22;5068;51.286;7.518;2022-10-12T04:01:45;1.40;59.30
10057;DHT22;5068;51.286;7.518;2022-10-12T04:03:17;1.40;59.20
10057;DHT22;5068;51.286;7.518;2022-10-12T04:04:51;1.40;59.30
10057;DHT22;5068;51.286;7.518;2022-10-12T04:06:26;1.40;59.30
10057;DHT22;5068;51.286;7.518;2022-10-12T04:07:59;1.40;59.40
10057;DHT22;5068;51.286;7.518;2022-10-12T04:09:33;1.40;59.40
10057;DHT22;5068;51.286;7.518;2022-10-12T04:11:06;1.40;59.40
10057;DHT22;5068;51.286;7.518;2022-10-12T04:12:39;1.40;59.40
10057;DHT22;5068;51.286;7.518;2022-10-12T04:14:12;1.40;59.40
10057;DHT22;5068;51.286;7.518;2022-10-12T04:15:46;1.40;59.50
10057;DHT22;5068;51.286;7.518;2022-10-12T04:17:18;1.30;59.50
10057;DHT22;5068;51.286;7.518;2022-10-12T04:18:52;1.30;59.50
10057;DHT22;5068;51.286;7.518;2022-10-12T04:20:25;1.30;59.60
10057;DHT22;5068;51.286;7.518;2022-10-12T04:22:00;1.30;59.70
10057;DHT22;5068;51.286;7.518;2022-10-12T04:23:33;1.40;59.80
10057;DHT22;5068;51.286;7.518;2022-10-12T04:25:08;1.30;60.50
10057;DHT22;5068;51.286;7.518;2022-10-12T04:26:43;1.30;59.80
10057;DHT22;5068;51.286;7.518;2022-10-12T04:28:16;1.30;60.50
10057;DHT22;5068;51.286;7.518;2022-10-12T04:29:50;1.30;59.80
10057;DHT22;5068;51.286;7.518;2022-10-12T04:31:24;1.40;59.90
10057;DHT22;5068;51.286;7.518;2022-10-12T04:32:58;1.30;59.80
10057;DHT22;5068;51.286;7.518;2022-10-12T04:34:31;1.30;59.80
10057;DHT22;5068;51.286;7.518;2022-10-12T04:36:06;1.30;59.70
10057;DHT22;5068;51.286;7.518;2022-10-12T04:37:43;1.30;59.70
10057;DHT22;5068;51.286;7.518;2022-10-12T04:39:16;1.40;59.70
10057;DHT22;5068;51.286;7.518;2022-10-12T04:40:50;1.30;59.60
10057;DHT22;5068;51.286;7.518;2022-10-12T04:42:24;1.30;60.20
10057;DHT22;5068;51.286;7.518;2022-10-12T04:43:56;1.30;59.50
10057;DHT22;5068;51.286;7.518;2022-10-12T04:45:30;1.30;59.50
10057;DHT22;5068;51.286;7.518;2022-10-12T04:47:03;1.30;59.50
10057;DHT22;5068;51.286;7.518;2022-10-12T04:48:37;1.30;59.50
10057;DHT22;5068;51.286;7.518;2022-10-12T04:50:10;1.40;59.60
10057;DHT22;5068;51.286;7.518;2022-10-12T04:51:43;1.30;59.50
10057;DHT22;5068;51.286;7.518;2022-10-12T04:53:18;1.30;59.50
10057;DHT22;5068;51.286;7.518;2022-10-12T04:54:51;1.30;59.50
10057;DHT22;5068;51.286;7.518;2022-10-12T04:56:25;1.30;59.50
10057;DHT22;5068;51.286;7.518;2022-10-12T04:57:58;1.20;59.40
10057;DHT22;5068;51.286;7.518;2022-10-12T04:59:32;1.30;59.50
10057;DHT22;5068;51.286;7.518;2022-10-12T05:01:05;1.20;59.40
10057;DHT22;5068;51.286;7.518;2022-10-12T05:02:39;1.20;59.40
10057;DHT22;5068;51.286;7.518;2022-10-12T05:04:12;1.20;59.50
10057;DHT22;5068;51.286;7.518;2022-10-12T05:05:45;1.20;59.50
10057;DHT22;5068;51.286;7.518;2022-10-12T05:07:19;1.20;59.60
10057;DHT22;5068;51.286;7.518;2022-10-12T05:08:53;1.20;59.60
10057;DHT22;5068;51.286;7.518;2022-10-12T05:10:30;1.20;59.70
10057;DHT22;5068;51.286;7.518;2022-10-12T05:12:05;1.20;59.80
10057;DHT22;5068;51.286;7.518;2022-10-12T05:13:38;1.20;59.80
10057;DHT22;5068;51.286;7.518;2022-10-12T05:15:12;1.30;60.00
10057;DHT22;5068;51.286;7.518;2022-10-12T05:16:45;1.20;60.10
10057;DHT22;5068;51.286;7.518;2022-10-12T05:18:18;1.20;60.20
10057;DHT22;5068;51.286;7.518;2022-10-12T05:19:52;1.20;60.20
10057;DHT22;5068;51.286;7.518;2022-10-12T05:21:25;1.20;60.30
10057;DHT22;5068;51.286;7.518;2022-10-12T05:22:58;1.20;60.30
10057;DHT22;5068;51.286;7.518;2022-10-12T05:24:33;1.20;60.40
10057;DHT22;5068;51.286;7.518;2022-10-12T05:26:06;1.20;60.50
10057;DHT22;5068;51.286;7.518;2022-10-12T05:27:39;1.20;60.60
10057;DHT22;5068;51.286;7.518;2022-10-12T05:29:13;1.20;60.70
10057;DHT22;5068;51.286;7.518;2022-10-12T05:30:48;1.20;60.70
10057;DHT22;5068;51.286;7.518;2022-10-12T05:32:22;1.20;60.80
10057;DHT22;5068;51.286;7.518;2022-10-12T05:33:56;1.20;60.80
10057;DHT22;5068;51.286;7.518;2022-10-12T05:35:29;1.20;60.80
10057;DHT22;5068;51.286;7.518;2022-10-12T05:37:03;1.20;60.90
10057;DHT22;5068;51.286;7.518;2022-10-12T05:38:36;1.20;60.90
10057;DHT22;5068;51.286;7.518;2022-10-12T05:40:11;1.20;60.90
10057;DHT22;5068;51.286;7.518;2022-10-12T05:41:45;1.20;61.10
10057;DHT22;5068;51.286;7.518;2022-10-12T05:43:18;1.20;61.20
10057;DHT22;5068;51.286;7.518;2022-10-12T05:44:52;1.20;61.30
10057;DHT22;5068;51.286;7.518;2022-10-12T05:46:25;1.20;61.40
10057;DHT22;5068;51.286;7.518;2022-10-12T05:47:58;1.20;61.50
10057;DHT22;5068;51.286;7.518;2022-10-12T05:49:32;1.20;61.50
10057;DHT22;5068;51.286;7.518;2022-10-12T05:51:05;1.20;61.60
10057;DHT22;5068;51.286;7.518;2022-10-12T05:52:39;1.20;61.60
10057;DHT22;5068;51.286;7.518;2022-10-12T05:54:12;1.30;61.70
10057;DHT22;5068;51.286;7.518;2022-10-12T05:55:52;1.30;61.60
10057;DHT22;5068;51.286;7.518;2022-10-12T05:57:26;1.30;61.70
10057;DHT22;5068;51.286;7.518;2022-10-12T05:59:00;1.30;61.60
10057;DHT22;5068;51.286;7.518;2022-10-12T06:00:34;1.30;61.50
10057;DHT22;5068;51.286;7.518;2022-10-12T06:02:11;1.30;61.50
10057;DHT22;5068;51.286;7.518;2022-10-12T06:03:45;1.30;61.50
10057;DHT22;5068;51.286;7.518;2022-10-12T06:05:19;1.30;61.40
10057;DHT22;5068;51.286;7.518;2022-10-12T06:06:52;1.40;61.60
10057;DHT22;5068;51.286;7.518;2022-10-12T06:08:25;1.30;61.50
10057;DHT22;5068;51.286;7.518;2022-10-12T06:09:58;1.40;61.50
10057;DHT22;5068;51.286;7.518;2022-10-12T06:11:34;1.40;61.50
10057;DHT22;5068;51.286;7.518;2022-10-12T06:13:07;1.40;61.40
10057;DHT22;5068;51.286;7.518;2022-10-12T06:14:41;1.40;61.30
10057;DHT22;5068;51.286;7.518;2022-10-12T06:16:14;1.40;61.30
10057;DHT22;5068;51.286;7.518;2022-10-12T06:17:48;1.40;61.30
10057;DHT22;5068;51.286;7.518;2022-10-12T06:19:21;1.40;61.30
10057;DHT22;5068;51.286;7.518;2022-10-12T06:20:54;1.40;61.30
10057;DHT22;5068;51.286;7.518;2022-10-12T06:22:48;1.40;61.20
10057;DHT22;5068;51.286;7.518;2022-10-12T06:24:21;1.40;61.10
10057;DHT22;5068;51.286;7.518;2022-10-12T06:25:54;1.50;61.20
10057;DHT22;5068;51.286;7.518;2022-10-12T06:27:29;1.40;61.20
10057;DHT22;5068;51.286;7.518;2022-10-12T06:29:03;1.40;61.40
10057;DHT22;5068;51.286;7.518;2022-10-12T06:30:36;1.40;61.50
10057;DHT22;5068;51.286;7.518;2022-10-12T06:32:12;1.40;61.60
10057;DHT22;5068;51.286;7.518;2022-10-12T06:33:46;1.40;61.50
10057;DHT22;5068;51.286;7.518;2022-10-12T06:35:22;1.40;61.40
10057;DHT22;5068;51.286;7.518;2022-10-12T06:36:55;1.50;61.60
10057;DHT22;5068;51.286;7.518;2022-10-12T06:38:33;1.40;61.50
10057;DHT22;5068;51.286;7.518;2022-10-12T06:40:07;1.40;61.40
10057;DHT22;5068;51.286;7.518;2022-10-12T06:41:41;1.50;61.50
10057;DHT22;5068;51.286;7.518;2022-10-12T06:43:16;1.50;61.40
10057;DHT22;5068;51.286;7.518;2022-10-12T06:44:50;1.40;62.10
10057;DHT22;5068;51.286;7.518;2022-10-12T06:46:23;1.40;61.20
10057;DHT22;5068;51.286;7.518;2022-10-12T06:47:57;1.50;61.30
10057;DHT22;5068;51.286;7.518;2022-10-12T06:49:31;1.60;61.40
10057;DHT22;5068;51.286;7.518;2022-10-12T06:51:04;1.50;61.30
10057;DHT22;5068;51.286;7.518;2022-10-12T06:52:38;1.50;61.40
10057;DHT22;5068;51.286;7.518;2022-10-12T06:54:12;1.50;61.40
10057;DHT22;5068;51.286;7.518;2022-10-12T06:55:45;1.50;61.50
10057;DHT22;5068;51.286;7.518;2022-10-12T06:57:19;1.50;61.60
10057;DHT22;5068;51.286;7.518;2022-10-12T06:58:54;1.50;61.60
10057;DHT22;5068;51.286;7.518;2022-10-12T07:00:28;1.50;61.70
10057;DHT22;5068;51.286;7.518;2022-10-12T07:02:01;1.60;61.80
10057;DHT22;5068;51.286;7.518;2022-10-12T07:03:35;1.60;61.90
10057;DHT22;5068;51.286;7.518;2022-10-12T07:05:09;1.60;61.80
10057;DHT22;5068;51.286;7.518;2022-10-12T07:06:42;1.60;61.70
10057;DHT22;5068;51.286;7.518;2022-10-12T07:08:16;1.70;61.80
10057;DHT22;5068;51.286;7.518;2022-10-12T07:09:50;1.60;61.60
10057;DHT22;5068;51.286;7.518;2022-10-12T07:11:24;1.60;61.50
10057;DHT22;5068;51.286;7.518;2022-10-12T07:12:58;1.60;61.50
10057;DHT22;5068;51.286;7.518;2022-10-12T07:14:33;1.70;61.40
10057;DHT22;5068;51.286;7.518;2022-10-12T07:16:06;1.70;61.40
10057;DHT22;5068;51.286;7.518;2022-10-12T07:17:40;1.70;61.40
10057;DHT22;5068;51.286;7.518;2022-10-12T07:19:13;1.70;61.50
10057;DHT22;5068;51.286;7.518;2022-10-12T07:20:46;1.80;61.80
10057;DHT22;5068;51.286;7.518;2022-10-12T07:22:20;1.80;61.90
10057;DHT22;5068;51.286;7.518;2022-10-12T07:23:53;1.80;62.00
10057;DHT22;5068;51.286;7.518;2022-10-12T07:25:27;1.80;62.00
10057;DHT22;5068;51.286;7.518;2022-10-12T07:27:01;1.80;62.10
10057;DHT22;5068;51.286;7.518;2022-10-12T07:28:36;1.80;62.00
10057;DHT22;5068;51.286;7.518;2022-10-12T07:30:12;1.90;62.20
10057;DHT22;5068;51.286;7.518;2022-10-12T07:31:45;1.90;62.30
10057;DHT22;5068;51.286;7.518;2022-10-12T07:33:22;1.90;62.30
10057;DHT22;5068;51.286;7.518;2022-10-12T07:34:56;1.90;62.30
10057;DHT22;5068;51.286;7.518;2022-10-12T07:36:29;2.00;62.30
10057;DHT22;5068;51.286;7.518;2022-10-12T07:38:23;2.00;62.30
10057;DHT22;5068;51.286;7.518;2022-10-12T07:39:56;2.00;62.30
10057;DHT22;5068;51.286;7.518;2022-10-12T07:41:30;2.10;62.40
10057;DHT22;5068;51.286;7.518;2022-10-12T07:43:03;2.10;62.40
10057;DHT22;5068;51.286;7.518;2022-10-12T07:44:47;2.10;62.50
10057;DHT22;5068;51.286;7.518;2022-10-12T07:46:21;2.20;62.60
10057;DHT22;5068;51.286;7.518;2022-10-12T07:47:56;2.20;62.60
10057;DHT22;5068;51.286;7.518;2022-10-12T07:49:29;2.20;62.60
10057;DHT22;5068;51.286;7.518;2022-10-12T07:51:03;2.20;62.50
10057;DHT22;5068;51.286;7.518;2022-10-12T07:52:38;2.30;63.50
10057;DHT22;5068;51.286;7.518;2022-10-12T07:54:11;2.30;62.60
10057;DHT22;5068;51.286;7.518;2022-10-12T07:55:51;2.30;62.70
10057;DHT22;5068;51.286;7.518;2022-10-12T07:57:31;2.40;62.80
10057;DHT22;5068;51.286;7.518;2022-10-12T07:59:04;2.40;62.70
10057;DHT22;5068;51.286;7.518;2022-10-12T08:00:38;2.50;62.90
10057;DHT22;5068;51.286;7.518;2022-10-12T08:02:13;2.50;63.00
10057;DHT22;5068;51.286;7.518;2022-10-12T08:03:46;2.50;63.00
10057;DHT22;5068;51.286;7.518;2022-10-12T08:05:20;2.60;63.20
10057;DHT22;5068;51.286;7.518;2022-10-12T08:06:54;2.60;63.20
10057;DHT22;5068;51.286;7.518;2022-10-12T08:08:29;2.70;63.60
10057;DHT22;5068;51.286;7.518;2022-10-12T08:10:03;2.70;63.80
10057;DHT22;5068;51.286;7.518;2022-10-12T08:11:37;2.70;64.00
10057;DHT22;5068;51.286;7.518;2022-10-12T08:13:11;2.80;63.90
10057;DHT22;5068;51.286;7.518;2022-10-12T08:14:44;2.80;63.70
10057;DHT22;5068;51.286;7.518;2022-10-12T08:16:19;2.90;63.70
10057;DHT22;5068;51.286;7.518;2022-10-12T08:17:55;2.90;63.70
10057;DHT22;5068;51.286;7.518;2022-10-12T08:19:28;2.90;63.80
10057;DHT22;5068;51.286;7.518;2022-10-12T08:21:07;3.00;63.90
10057;DHT22;5068;51.286;7.518;2022-10-12T08:22:41;3.10;64.10
10057;DHT22;5068;51.286;7.518;2022-10-12T08:24:15;3.10;64.30
10057;DHT22;5068;51.286;7.518;2022-10-12T08:25:51;3.20;64.50
10057;DHT22;5068;51.286;7.518;2022-10-12T08:27:28;3.20;64.90
10057;DHT22;5068;51.286;7.518;2022-10-12T08:29:04;3.30;65.10
10057;DHT22;5068;51.286;7.518;2022-10-12T08:30:38;3.30;65.10
10057;DHT22;5068;51.286;7.518;2022-10-12T08:32:12;3.50;65.50
10057;DHT22;5068;51.286;7.518;2022-10-12T08:33:47;3.60;66.00
10057;DHT22;5068;51.286;7.518;2022-10-12T08:35:20;3.60;66.10
10057;DHT22;5068;51.286;7.518;2022-10-12T08:36:53;3.60;65.90
10057;DHT22;5068;51.286;7.518;2022-10-12T08:38:27;3.70;66.00
10057;DHT22;5068;51.286;7.518;2022-10-12T08:40:00;3.80;66.00
10057;DHT22;5068;51.286;7.518;2022-10-12T08:41:42;3.90;66.00
10057;DHT22;5068;51.286;7.518;2022-10-12T08:43:31;4.00;66.30
10057;DHT22;5068;51.286;7.518;2022-10-12T08:45:26;4.10;66.90
10057;DHT22;5068;51.286;7.518;2022-10-12T08:47:11;4.20;67.40
10057;DHT22;5068;51.286;7.518;2022-10-12T08:48:54;4.30;67.80
10057;DHT22;5068;51.286;7.518;2022-10-12T08:50:35;4.40;68.10
10057;DHT22;5068;51.286;7.518;2022-10-12T08:52:21;4.50;68.10
10057;DHT22;5068;51.286;7.518;2022-10-12T08:54:02;4.60;68.20
10057;DHT22;5068;51.286;7.518;2022-10-12T08:55:40;4.70;68.10
10057;DHT22;5068;51.286;7.518;2022-10-12T08:57:16;4.80;68.20
10057;DHT22;5068;51.286;7.518;2022-10-12T08:58:52;4.90;68.30
10057;DHT22;5068;51.286;7.518;2022-10-12T09:00:27;5.00;68.70
10057;DHT22;5068;51.286;7.518;2022-10-12T09:02:20;5.10;68.90
10057;DHT22;5068;51.286;7.518;2022-10-12T09:04:13;5.20;69.20
10057;DHT22;5068;51.286;7.518;2022-10-12T09:05:59;5.40;68.30
10057;DHT22;5068;51.286;7.518;2022-10-12T09:07:41;5.50;68.30
10057;DHT22;5068;51.286;7.518;2022-10-12T09:09:31;5.60;68.50
10057;DHT22;5068;51.286;7.518;2022-10-12T09:11:27;5.70;68.90
10057;DHT22;5068;51.286;7.518;2022-10-12T09:13:22;5.80;69.20
10057;DHT22;5068;51.286;7.518;2022-10-12T09:15:10;6.00;69.50
10057;DHT22;5068;51.286;7.518;2022-10-12T09:16:47;6.10;69.60
10057;DHT22;5068;51.286;7.518;2022-10-12T09:18:32;6.20;69.70
10057;DHT22;5068;51.286;7.518;2022-10-12T09:20:18;6.30;70.10
10057;DHT22;5068;51.286;7.518;2022-10-12T09:21:54;6.50;70.30
10057;DHT22;5068;51.286;7.518;2022-10-12T09:23:31;6.60;70.30
10057;DHT22;5068;51.286;7.518;2022-10-12T09:25:11;6.70;70.50
10057;DHT22;5068;51.286;7.518;2022-10-12T09:26:49;6.90;70.60
10057;DHT22;5068;51.286;7.518;2022-10-12T09:28:28;7.00;70.70
10057;DHT22;5068;51.286;7.518;2022-10-12T09:30:12;7.10;70.70
10057;DHT22;5068;51.286;7.518;2022-10-12T09:31:56;7.20;70.60
10057;DHT22;5068;51.286;7.518;2022-10-12T09:33:46;7.30;70.40
10057;DHT22;5068;51.286;7.518;2022-10-12T09:35:24;7.40;70.40
10057;DHT22;5068;51.286;7.518;2022-10-12T09:37:01;7.60;70.60
10057;DHT22;5068;51.286;7.518;2022-10-12T09:38:36;7.70;70.70
10057;DHT22;5068;51.286;7.518;2022-10-12T09:40:18;7.80;70.70
10057;DHT22;5068;51.286;7.518;2022-10-12T09:41:53;7.90;70.90
10057;DHT22;5068;51.286;7.518;2022-10-12T09:43:27;8.00;70.80
10057;DHT22;5068;51.286;7.518;2022-10-12T09:45:04;8.10;70.70
10057;DHT22;5068;51.286;7.518;2022-10-12T09:46:52;8.10;70.70
10057;DHT22;5068;51.286;7.518;2022-10-12T09:48:29;8.20;70.70
10057;DHT22;5068;51.286;7.518;2022-10-12T09:50:04;8.40;70.70
10057;DHT22;5068;51.286;7.518;2022-10-12T09:51:40;8.40;70.90
10057;DHT22;5068;51.286;7.518;2022-10-12T09:53:21;8.50;71.00
10057;DHT22;5068;51.286;7.518;2022-10-12T09:54:59;8.60;71.10
10057;DHT22;5068;51.286;7.518;2022-10-12T09:56:39;8.70;71.10
10057;DHT22;5068;51.286;7.518;2022-10-12T09:58:18;8.80;71.30
10057;DHT22;5068;51.286;7.518;2022-10-12T09:59:53;8.90;71.50
10057;DHT22;5068;51.286;7.518;2022-10-12T10:01:28;9.00;71.50
10057;DHT22;5068;51.286;7.518;2022-10-12T10:03:03;9.10;71.60
10057;DHT22;5068;51.286;7.518;2022-10-12T10:04:37;9.20;71.50
10057;DHT22;5068;51.286;7.518;2022-10-12T10:06:11;9.30;70.40
10057;DHT22;5068;51.286;7.518;2022-10-12T10:07:47;9.50;68.90
10057;DHT22;5068;51.286;7.518;2022-10-12T10:09:29;9.60;69.50
10057;DHT22;5068;51.286;7.518;2022-10-12T10:11:03;9.70;68.00
10057;DHT22;5068;51.286;7.518;2022-10-12T10:12:41;9.90;67.20
10057;DHT22;5068;51.286;7.518;2022-10-12T10:14:20;10.00;65.50
10057;DHT22;5068;51.286;7.518;2022-10-12T10:16:02;10.20;64.80
10057;DHT22;5068;51.286;7.518;2022-10-12T10:17:38;10.40;63.10
10057;DHT22;5068;51.286;7.518;2022-10-12T10:19:15;10.50;63.30
10057;DHT22;5068;51.286;7.518;2022-10-12T10:20:52;10.70;64.60
10057;DHT22;5068;51.286;7.518;2022-10-12T10:22:28;10.80;64.90
10057;DHT22;5068;51.286;7.518;2022-10-12T10:24:05;11.00;63.80
10057;DHT22;5068;51.286;7.518;2022-10-12T10:25:55;11.10;63.90
10057;DHT22;5068;51.286;7.518;2022-10-12T10:27:33;11.50;64.90
10057;DHT22;5068;51.286;7.518;2022-10-12T10:29:22;11.90;63.70
10057;DHT22;5068;51.286;7.518;2022-10-12T10:31:04;12.10;60.30
10057;DHT22;5068;51.286;7.518;2022-10-12T10:32:39;12.50;60.20
10057;DHT22;5068;51.286;7.518;2022-10-12T10:34:20;12.70;59.50